Time;durP1;ratioP1;P1;durP2;ratioP2;P2;SDS_P1;SDS_P2;PMS_P1;PMS_P2;Temp;Humidity;BMP_temperature;BMP_pressure;BME280_temperature;BME280_humidity;BME280_pressure;Samples;Min_cycle;Max_cycle;Signal;HPM_P1;HPM_P2
2022/07/28 00:01:38;;;;;;;7.83;5.97;;;18.80;99.90;;;;;;5071601;28;20246;-65
2022/07/28 00:04:05;;;;;;;10.10;6.70;;;18.70;99.90;;;;;;5071633;28;20295;-66
2022/07/28 00:06:32;;;;;;;8.57;6.03;;;18.70;99.90;;;;;;5071244;28;20270;-64
2022/07/28 00:08:59;;;;;;;9.93;5.70;;;18.60;99.90;;;;;;5071870;28;20298;-67
2022/07/28 00:11:26;;;;;;;8.13;5.83;;;18.60;99.90;;;;;;5070409;28;20209;-66
2022/07/28 00:13:52;;;;;;;7.23;5.60;;;18.60;99.90;;;;;;5071151;28;20212;-66
2022/07/28 00:16:19;;;;;;;8.87;5.93;;;18.50;99.90;;;;;;5070922;28;20318;-66
2022/07/28 00:18:48;;;;;;;11.80;6.17;;;18.50;99.90;;;;;;5065503;28;20573;-66
2022/07/28 00:21:15;;;;;;;8.63;6.10;;;18.50;99.90;;;;;;5069879;28;20214;-65
2022/07/28 00:23:41;;;;;;;8.73;6.10;;;18.40;99.90;;;;;;5070860;28;20645;-66
2022/07/28 00:26:10;;;;;;;8.00;5.80;;;18.40;99.90;;;;;;5071104;28;20678;-66
2022/07/28 00:28:37;;;;;;;8.90;5.80;;;18.40;99.90;;;;;;5070709;28;20237;-66
2022/07/28 00:31:04;;;;;;;7.80;6.00;;;18.40;99.90;;;;;;5070000;28;20297;-65
2022/07/28 00:33:31;;;;;;;10.00;6.23;;;18.40;99.90;;;;;;5071061;28;20642;-67
2022/07/28 00:35:59;;;;;;;8.63;5.50;;;18.40;99.90;;;;;;5070962;28;20231;-66
2022/07/28 00:38:26;;;;;;;7.87;5.87;;;18.30;99.90;;;;;;5071150;28;20216;-66
2022/07/28 00:41:11;;;;;;;7.23;5.70;;;18.30;99.90;;;;;;5070175;28;20234;-66
2022/07/28 00:43:39;;;;;;;6.13;5.27;;;18.30;99.90;;;;;;5070552;28;20209;-65
2022/07/28 00:46:07;;;;;;;7.87;5.57;;;18.30;99.90;;;;;;5070969;28;20200;-66
2022/07/28 00:48:34;;;;;;;7.73;5.13;;;18.30;99.90;;;;;;5070844;28;20278;-65
2022/07/28 00:51:02;;;;;;;6.40;5.23;;;18.30;99.90;;;;;;5070670;28;20200;-66
2022/07/28 00:53:30;;;;;;;7.07;5.27;;;18.30;99.90;;;;;;5070468;28;20216;-66
2022/07/28 00:55:58;;;;;;;6.43;5.17;;;18.40;99.90;;;;;;5068001;28;20227;-66
2022/07/28 00:58:26;;;;;;;7.33;5.40;;;18.30;99.90;;;;;;5069494;28;20244;-65
2022/07/28 01:00:53;;;;;;;5.93;4.90;;;18.30;99.90;;;;;;5070767;28;20299;-66
2022/07/28 01:03:20;;;;;;;6.57;5.47;;;18.30;99.90;;;;;;5069637;28;20290;-66
2022/07/28 01:05:56;;;;;;;6.83;5.33;;;18.30;99.90;;;;;;5070936;28;20223;-66
2022/07/28 01:08:33;;;;;;;7.90;5.80;;;18.30;99.90;;;;;;5070287;28;20199;-66
2022/07/28 01:11:05;;;;;;;7.53;5.73;;;18.30;99.90;;;;;;5067922;28;20802;-66
2022/07/28 01:13:38;;;;;;;7.87;5.70;;;18.20;99.90;;;;;;5068413;28;20229;-67
2022/07/28 01:16:06;;;;;;;7.50;5.60;;;18.20;99.90;;;;;;5070558;28;20301;-66
2022/07/28 01:18:41;;;;;;;6.73;5.60;;;18.20;99.90;;;;;;5070732;28;20566;-65
2022/07/28 01:21:12;;;;;;;7.70;5.70;;;18.20;99.90;;;;;;5070338;28;20195;-65
2022/07/28 01:23:58;;;;;;;7.30;6.00;;;18.20;99.90;;;;;;5070601;28;20238;-65
2022/07/28 01:26:39;;;;;;;8.53;6.10;;;18.20;99.90;;;;;;5067963;28;20207;-66
2022/07/28 01:29:22;;;;;;;8.93;6.10;;;18.20;99.90;;;;;;5070199;28;20220;-65
2022/07/28 01:31:56;;;;;;;8.30;6.70;;;18.20;99.90;;;;;;5069005;28;20284;-66
2022/07/28 01:34:29;;;;;;;7.43;6.17;;;18.10;99.90;;;;;;5066469;28;20207;-64
2022/07/28 01:37:04;;;;;;;8.60;6.53;;;18.10;99.90;;;;;;5066635;28;20261;-65
2022/07/28 01:39:34;;;;;;;9.87;5.87;;;18.00;99.90;;;;;;5074725;28;20202;-64
2022/07/28 01:42:04;;;;;;;8.90;5.97;;;18.00;99.90;;;;;;5074081;28;20196;-65
2022/07/28 01:44:34;;;;;;;7.87;6.10;;;18.00;99.90;;;;;;5074368;28;20280;-64
2022/07/28 01:47:06;;;;;;;7.87;6.33;;;17.90;99.90;;;;;;5071824;28;20200;-64
2022/07/28 01:49:34;;;;;;;7.33;5.87;;;18.00;99.90;;;;;;5054108;28;20199;-64
2022/07/28 01:52:03;;;;;;;7.53;5.63;;;17.90;99.90;;;;;;5061056;28;20649;-64
2022/07/28 01:54:32;;;;;;;7.93;6.17;;;17.90;99.90;;;;;;5072669;28;20252;-65
2022/07/28 01:57:01;;;;;;;8.50;6.00;;;17.90;99.90;;;;;;5073900;28;20311;-64
2022/07/28 01:59:30;;;;;;;8.80;5.80;;;17.90;99.90;;;;;;5073573;28;20287;-64
2022/07/28 02:01:58;;;;;;;7.80;4.97;;;17.90;99.90;;;;;;5067328;28;20204;-64
2022/07/28 02:04:28;;;;;;;7.83;6.23;;;17.90;99.90;;;;;;5067835;28;20321;-65
2022/07/28 02:06:56;;;;;;;7.47;5.57;;;18.00;99.90;;;;;;5070179;28;20231;-63
2022/07/28 02:09:25;;;;;;;7.20;5.83;;;17.90;99.90;;;;;;5072974;28;20736;-63
2022/07/28 02:11:54;;;;;;;7.23;5.80;;;17.90;99.90;;;;;;5073985;28;20226;-64
2022/07/28 02:14:23;;;;;;;8.27;5.97;;;17.90;99.90;;;;;;5073999;28;20233;-64
2022/07/28 02:16:54;;;;;;;6.40;5.10;;;17.90;99.90;;;;;;5073397;28;20238;-65
2022/07/28 02:19:22;;;;;;;6.83;5.47;;;17.80;99.90;;;;;;5070088;28;20613;-63
2022/07/28 02:21:51;;;;;;;7.27;5.70;;;17.80;99.90;;;;;;5073680;28;20574;-64
2022/07/28 02:24:21;;;;;;;7.70;5.60;;;17.80;99.90;;;;;;5073386;28;20911;-64
2022/07/28 02:26:52;;;;;;;7.23;5.80;;;17.90;99.90;;;;;;5071927;28;20205;-65
2022/07/28 02:29:23;;;;;;;8.53;5.97;;;17.80;99.90;;;;;;5073598;28;20510;-66
2022/07/28 02:31:55;;;;;;;7.33;5.33;;;17.80;99.90;;;;;;5073640;28;20624;-65
2022/07/28 02:34:25;;;;;;;5.17;4.40;;;17.80;99.90;;;;;;5073314;28;20189;-66
2022/07/28 02:36:56;;;;;;;9.03;4.80;;;17.80;99.90;;;;;;5070641;28;20225;-65
2022/07/28 02:39:25;;;;;;;7.43;5.07;;;17.80;99.90;;;;;;5072357;28;20202;-65
2022/07/28 02:41:58;;;;;;;7.27;5.27;;;17.80;99.90;;;;;;5071061;28;20601;-66
2022/07/28 02:44:30;;;;;;;7.80;5.73;;;17.80;99.90;;;;;;5071810;28;20210;-64
2022/07/28 02:46:58;;;;;;;7.27;5.63;;;17.80;99.90;;;;;;5072680;28;20188;-64
2022/07/28 02:49:29;;;;;;;5.97;4.77;;;17.70;99.90;;;;;;5073238;28;20610;-65
2022/07/28 02:51:59;;;;;;;7.77;5.13;;;17.70;99.90;;;;;;5070991;28;20286;-65
2022/07/28 02:54:27;;;;;;;7.07;5.37;;;17.70;99.90;;;;;;5070803;28;20222;-66
2022/07/28 02:56:56;;;;;;;9.93;5.90;;;17.70;99.90;;;;;;5073304;28;20220;-66
2022/07/28 02:59:24;;;;;;;9.17;5.70;;;17.70;99.90;;;;;;5073254;28;20630;-66
2022/07/28 03:01:52;;;;;;;7.13;5.27;;;17.80;99.90;;;;;;5072881;28;20206;-67
2022/07/28 03:04:55;;;;;;;6.37;5.00;;;17.80;99.90;;;;;;5073421;28;20262;-68
2022/07/28 03:07:09;;;;;;;8.20;5.73;;;17.80;99.90;;;;;;5070571;28;20211;-68
2022/07/28 03:09:39;;;;;;;7.27;5.60;;;17.90;99.90;;;;;;5073207;28;20305;-68
2022/07/28 03:12:06;;;;;;;7.83;5.90;;;17.90;99.90;;;;;;5068037;28;20551;-67
2022/07/28 03:14:33;;;;;;;8.37;5.30;;;17.80;99.90;;;;;;5072168;28;20339;-68
2022/07/28 03:17:00;;;;;;;6.27;5.40;;;17.80;99.90;;;;;;5072865;28;20307;-67
2022/07/28 03:19:27;;;;;;;6.77;5.87;;;17.80;99.90;;;;;;5071093;28;20231;-66
2022/07/28 03:21:54;;;;;;;8.27;5.67;;;17.80;99.90;;;;;;5069682;28;20311;-66
2022/07/28 03:24:24;;;;;;;8.57;5.80;;;17.80;99.90;;;;;;5071837;28;20261;-70
2022/07/28 03:26:58;;;;;;;7.87;5.73;;;17.70;99.90;;;;;;5072602;28;20204;-67
2022/07/28 03:29:27;;;;;;;6.70;5.87;;;17.70;99.90;;;;;;5072598;28;20288;-67
2022/07/28 03:31:56;;;;;;;6.93;5.43;;;17.70;99.90;;;;;;5072606;28;20260;-67
2022/07/28 03:34:23;;;;;;;7.70;6.00;;;17.70;99.90;;;;;;5072880;28;20578;-70
2022/07/28 03:36:56;;;;;;;7.30;6.00;;;17.70;99.90;;;;;;5071154;28;20724;-68
2022/07/28 03:39:29;;;;;;;8.97;6.40;;;17.70;99.90;;;;;;5069666;28;20673;-67
2022/07/28 03:41:58;;;;;;;6.70;5.70;;;17.70;99.90;;;;;;5072412;28;20952;-67
2022/07/28 03:44:26;;;;;;;7.10;5.87;;;17.70;99.90;;;;;;5072421;28;20316;-67
2022/07/28 03:46:53;;;;;;;6.80;5.77;;;17.70;99.90;;;;;;5071451;28;20200;-67
2022/07/28 03:49:20;;;;;;;8.30;5.10;;;17.70;99.90;;;;;;5072130;28;20302;-67
2022/07/28 03:51:47;;;;;;;7.47;5.63;;;17.80;99.90;;;;;;5071888;28;20221;-67
2022/07/28 03:54:14;;;;;;;7.27;4.67;;;17.90;99.90;;;;;;5067292;28;20302;-67
2022/07/28 03:56:43;;;;;;;8.10;5.33;;;18.00;99.90;;;;;;5070516;28;20309;-67
2022/07/28 03:59:10;;;;;;;6.77;5.60;;;18.00;99.90;;;;;;5071257;28;20216;-67
2022/07/28 04:01:37;;;;;;;7.33;5.40;;;18.00;99.90;;;;;;5071978;28;20207;-68
2022/07/28 04:04:04;;;;;;;6.17;4.90;;;18.00;99.90;;;;;;5071587;28;20232;-66
2022/07/28 04:06:31;;;;;;;7.80;5.20;;;18.00;99.90;;;;;;5070430;28;20633;-67
2022/07/28 04:08:58;;;;;;;8.43;4.60;;;18.10;99.90;;;;;;5072408;28;20214;-67
2022/07/28 04:11:25;;;;;;;5.53;4.60;;;18.10;99.90;;;;;;5072287;28;20689;-69
2022/07/28 04:13:53;;;;;;;7.13;4.70;;;18.20;99.90;;;;;;5070358;28;20209;-67
2022/07/28 04:16:20;;;;;;;5.70;4.33;;;18.30;99.90;;;;;;5072029;28;20209;-68
2022/07/28 04:18:47;;;;;;;5.20;3.97;;;18.20;99.90;;;;;;5072274;28;20626;-68
2022/07/28 04:21:15;;;;;;;5.07;3.80;;;18.30;99.90;;;;;;5066186;28;20232;-66
2022/07/28 04:23:41;;;;;;;4.30;3.90;;;18.40;99.90;;;;;;5059988;28;20706;-68
2022/07/28 04:26:08;;;;;;;5.47;3.50;;;18.50;99.90;;;;;;5060654;28;20226;-68
2022/07/28 04:28:35;;;;;;;8.93;3.80;;;18.50;99.90;;;;;;5062149;28;20195;-67
2022/07/28 04:31:04;;;;;;;4.07;3.27;;;18.60;99.90;;;;;;5063103;28;20720;-67
2022/07/28 04:33:31;;;;;;;4.87;3.43;;;18.60;99.90;;;;;;5064399;28;20201;-67
2022/07/28 04:35:59;;;;;;;5.83;3.40;;;18.70;99.90;;;;;;5061251;28;20198;-68
2022/07/28 04:38:26;;;;;;;5.20;3.10;;;18.70;99.90;;;;;;5060872;28;20220;-67
2022/07/28 04:40:53;;;;;;;4.10;3.00;;;18.70;99.90;;;;;;5067633;28;20204;-67
2022/07/28 04:43:20;;;;;;;5.43;3.30;;;18.80;99.90;;;;;;5066159;28;20291;-67
2022/07/28 04:45:49;;;;;;;3.80;2.80;;;18.80;99.90;;;;;;5061550;28;20204;-68
2022/07/28 04:48:18;;;;;;;5.40;3.13;;;18.90;99.90;;;;;;5062205;28;20221;-67
2022/07/28 04:50:45;;;;;;;5.07;3.00;;;19.00;99.90;;;;;;5054229;28;20236;-68
2022/07/28 04:53:12;;;;;;;4.07;3.00;;;19.10;99.90;;;;;;5056539;28;20654;-68
2022/07/28 04:55:40;;;;;;;14.47;3.27;;;19.10;99.90;;;;;;5054102;28;20263;-68
2022/07/28 04:58:07;;;;;;;7.07;3.50;;;19.20;99.90;;;;;;5056320;28;20637;-68
2022/07/28 05:00:34;;;;;;;4.13;3.00;;;19.30;99.90;;;;;;5050797;28;20213;-67
2022/07/28 05:03:03;;;;;;;4.40;3.23;;;19.30;99.90;;;;;;5051099;28;20202;-67
2022/07/28 05:05:31;;;;;;;5.87;3.33;;;19.30;99.90;;;;;;5058799;28;20243;-67
2022/07/28 05:07:58;;;;;;;5.57;3.30;;;19.30;99.90;;;;;;5059031;28;20193;-66
2022/07/28 05:10:25;;;;;;;5.80;3.30;;;19.30;99.90;;;;;;5066095;28;20251;-66
2022/07/28 05:12:53;;;;;;;3.93;3.17;;;19.30;99.90;;;;;;5061635;28;20635;-68
2022/07/28 05:15:20;;;;;;;4.67;3.10;;;19.30;99.90;;;;;;5059418;28;20201;-67
2022/07/28 05:17:47;;;;;;;4.13;3.03;;;19.40;99.90;;;;;;5060968;28;20301;-66
2022/07/28 05:20:14;;;;;;;7.27;3.40;;;19.40;99.90;;;;;;5061011;28;20209;-67
2022/07/28 05:22:44;;;;;;;5.63;3.20;;;19.40;99.90;;;;;;5059115;28;20207;-68
2022/07/28 05:25:18;;;;;;;6.90;3.00;;;19.40;99.90;;;;;;5059983;28;20278;-67
2022/07/28 05:27:45;;;;;;;5.60;2.93;;;19.40;99.90;;;;;;5061041;28;20277;-67
2022/07/28 05:30:14;;;;;;;6.50;3.20;;;19.40;99.90;;;;;;5059978;28;20285;-68
2022/07/28 05:32:40;;;;;;;3.87;2.67;;;19.50;99.90;;;;;;5063174;28;20723;-68
2022/07/28 05:35:08;;;;;;;4.63;2.80;;;19.50;99.90;;;;;;5062766;28;20205;-67
2022/07/28 05:37:36;;;;;;;6.67;3.33;;;19.60;99.90;;;;;;5051938;28;20294;-67
2022/07/28 05:40:08;;;;;;;6.87;3.30;;;19.60;99.90;;;;;;5066391;28;20303;-68
2022/07/28 05:42:35;;;;;;;5.93;2.93;;;19.70;99.90;;;;;;5071064;28;20193;-68
2022/07/28 05:45:04;;;;;;;5.97;3.00;;;19.80;99.90;;;;;;5071772;28;20207;-68
2022/07/28 05:47:31;;;;;;;7.70;3.13;;;19.90;99.90;;;;;;5070144;28;20204;-67
2022/07/28 05:50:01;;;;;;;4.17;2.83;;;19.90;99.90;;;;;;5069341;28;20205;-67
2022/07/28 05:52:28;;;;;;;5.17;2.87;;;20.00;99.90;;;;;;5051212;28;20202;-68
2022/07/28 05:54:56;;;;;;;7.37;2.57;;;20.10;99.90;;;;;;5053252;28;20222;-68
2022/07/28 05:57:24;;;;;;;6.47;3.00;;;20.10;99.90;;;;;;5067292;28;20710;-67
2022/07/28 05:59:51;;;;;;;7.10;2.83;;;20.10;99.90;;;;;;5068028;28;20292;-68
2022/07/28 06:02:18;;;;;;;5.97;2.50;;;20.20;99.90;;;;;;5067549;28;20207;-68
2022/07/28 06:04:45;;;;;;;4.57;2.50;;;20.30;99.90;;;;;;5070856;28;20229;-70
2022/07/28 06:07:12;;;;;;;4.07;2.50;;;20.30;99.90;;;;;;5071112;28;20261;-71
2022/07/28 06:09:39;;;;;;;3.33;2.53;;;20.40;99.90;;;;;;5070892;28;20291;-70
2022/07/28 06:12:07;;;;;;;4.77;2.60;;;20.50;99.90;;;;;;5070178;28;20650;-68
2022/07/28 06:14:35;;;;;;;5.77;2.60;;;20.60;99.90;;;;;;5071016;28;20287;-67
2022/07/28 06:17:02;;;;;;;4.03;2.43;;;20.70;99.90;;;;;;5071275;28;20286;-69
2022/07/28 06:19:29;;;;;;;5.33;2.67;;;20.70;99.90;;;;;;5068166;28;20243;-67
2022/07/28 06:21:55;;;;;;;6.03;2.10;;;20.70;99.90;;;;;;5072889;28;20627;-69
2022/07/28 06:24:22;;;;;;;4.63;2.10;;;20.80;99.90;;;;;;5074211;28;20323;-68
2022/07/28 06:26:49;;;;;;;3.87;2.07;;;20.80;99.90;;;;;;5074085;28;20254;-67
2022/07/28 06:29:17;;;;;;;2.23;1.90;;;21.00;99.90;;;;;;5074200;28;20253;-70
2022/07/28 06:31:45;;;;;;;4.23;2.53;;;21.10;99.90;;;;;;5071979;28;20290;-69
2022/07/28 06:34:12;;;;;;;3.43;1.80;;;21.20;99.90;;;;;;5073282;28;20209;-68
2022/07/28 06:36:39;;;;;;;3.03;1.63;;;21.20;99.90;;;;;;5074030;28;20258;-67
2022/07/28 06:39:06;;;;;;;2.03;1.70;;;21.20;99.90;;;;;;5074513;28;20308;-68
2022/07/28 06:41:33;;;;;;;6.03;2.23;;;21.30;99.90;;;;;;5074041;28;20248;-69
2022/07/28 06:44:00;;;;;;;4.80;1.70;;;21.30;99.90;;;;;;5071916;28;20201;-70
2022/07/28 06:46:27;;;;;;;5.53;1.83;;;21.30;99.90;;;;;;5074103;28;20208;-68
2022/07/28 06:48:55;;;;;;;4.10;1.80;;;21.20;99.90;;;;;;5074374;28;20634;-68
2022/07/28 06:51:22;;;;;;;9.57;1.77;;;21.20;99.90;;;;;;5072009;28;20436;-69
2022/07/28 06:53:49;;;;;;;3.20;1.77;;;21.30;99.90;;;;;;5073303;28;20295;-70
2022/07/28 06:56:16;;;;;;;3.83;1.93;;;21.40;99.90;;;;;;5073210;28;20201;-68
2022/07/28 06:58:43;;;;;;;2.87;1.70;;;21.40;99.90;;;;;;5074153;28;20315;-67
2022/07/28 07:01:11;;;;;;;3.33;1.60;;;21.40;99.90;;;;;;5073872;28;20209;-67
2022/07/28 07:03:38;;;;;;;6.20;1.90;;;21.50;99.90;;;;;;5072000;28;20345;-69
2022/07/28 07:06:06;;;;;;;3.93;1.90;;;21.60;99.90;;;;;;5074304;28;20341;-69
2022/07/28 07:08:34;;;;;;;6.63;1.67;;;21.70;99.90;;;;;;5071625;28;20205;-69
2022/07/28 07:11:01;;;;;;;2.67;1.80;;;21.80;99.90;;;;;;5072023;28;20224;-68
2022/07/28 07:13:28;;;;;;;4.00;2.10;;;21.90;99.90;;;;;;5073785;28;20300;-69
2022/07/28 07:15:55;;;;;;;2.53;1.80;;;22.00;99.90;;;;;;5072731;28;20215;-70
2022/07/28 07:18:21;;;;;;;4.40;2.00;;;22.00;99.90;;;;;;5073697;28;20678;-68
2022/07/28 07:20:48;;;;;;;2.33;1.63;;;22.00;99.90;;;;;;5073834;28;20208;-69
2022/07/28 07:23:17;;;;;;;3.43;1.77;;;22.00;99.90;;;;;;5072499;28;20209;-69
2022/07/28 07:25:44;;;;;;;3.60;2.17;;;22.00;99.90;;;;;;5073399;28;20208;-68
2022/07/28 07:28:10;;;;;;;2.57;2.00;;;22.00;99.90;;;;;;5073630;28;20292;-69
2022/07/28 07:30:37;;;;;;;5.03;2.30;;;22.00;99.90;;;;;;5071813;28;20293;-68
2022/07/28 07:33:04;;;;;;;5.07;3.83;;;22.00;99.90;;;;;;5073102;28;20291;-68
2022/07/28 07:35:32;;;;;;;3.37;2.13;;;22.10;99.90;;;;;;5072802;28;20253;-69
2022/07/28 07:37:59;;;;;;;4.53;2.30;;;22.20;99.90;;;;;;5073358;28;20672;-68
2022/07/28 07:40:27;;;;;;;4.80;2.00;;;22.20;99.90;;;;;;5070698;28;20250;-69
2022/07/28 07:42:54;;;;;;;3.43;1.97;;;22.20;99.90;;;;;;5072997;28;20205;-68
2022/07/28 07:45:21;;;;;;;3.13;1.73;;;22.30;99.90;;;;;;5073030;28;20262;-68
2022/07/28 07:47:48;;;;;;;4.37;2.37;;;22.30;99.90;;;;;;5073332;28;20683;-68
2022/07/28 07:50:15;;;;;;;3.90;2.07;;;22.30;99.90;;;;;;5073033;28;20296;-69
2022/07/28 07:52:42;;;;;;;4.17;1.80;;;22.40;99.90;;;;;;5072798;28;20208;-70
2022/07/28 07:55:09;;;;;;;3.37;1.70;;;22.50;99.90;;;;;;5071862;28;20759;-70
2022/07/28 07:57:37;;;;;;;6.17;2.23;;;22.50;99.90;;;;;;5073019;28;20293;-69
2022/07/28 08:00:05;;;;;;;2.97;1.50;;;22.50;99.90;;;;;;5072638;28;20207;-70
2022/07/28 08:02:32;;;;;;;5.00;1.90;;;22.50;99.90;;;;;;5070524;28;20720;-69
2022/07/28 08:04:59;;;;;;;2.87;1.60;;;22.40;99.90;;;;;;5072527;28;20205;-70
2022/07/28 08:07:26;;;;;;;1.60;1.37;;;22.50;99.90;;;;;;5071243;28;20233;-70
2022/07/28 08:09:53;;;;;;;4.27;1.90;;;22.50;99.90;;;;;;5071827;28;20685;-69
2022/07/28 08:12:20;;;;;;;3.33;1.50;;;22.60;99.90;;;;;;5071757;28;20298;-69
2022/07/28 08:14:48;;;;;;;3.53;1.83;;;22.70;99.90;;;;;;5072652;28;20683;-68
2022/07/28 08:17:15;;;;;;;4.77;1.80;;;22.70;99.90;;;;;;5072125;28;20202;-68
2022/07/28 08:19:42;;;;;;;4.27;1.80;;;22.80;99.90;;;;;;5072554;28;20681;-70
2022/07/28 08:22:09;;;;;;;8.70;2.00;;;22.80;99.90;;;;;;5071592;28;20315;-69
2022/07/28 08:24:36;;;;;;;2.80;1.70;;;22.80;99.90;;;;;;5069258;28;20325;-69
2022/07/28 08:27:03;;;;;;;4.33;2.20;;;22.80;99.90;;;;;;5070223;28;20248;-68
2022/07/28 08:29:30;;;;;;;2.93;1.60;;;22.90;99.90;;;;;;5070360;28;20226;-68
2022/07/28 08:32:00;;;;;;;4.73;1.70;;;22.90;99.90;;;;;;5070978;28;20265;-68
2022/07/28 08:34:27;;;;;;;2.80;1.60;;;23.00;99.90;;;;;;5072045;28;20198;-68
2022/07/28 08:36:54;;;;;;;1.77;1.60;;;23.00;99.90;;;;;;5072091;28;20239;-69
2022/07/28 08:39:21;;;;;;;4.70;1.60;;;23.10;99.90;;;;;;5071529;28;20221;-69
2022/07/28 08:41:55;;;;;;;2.73;1.67;;;23.10;99.90;;;;;;5071550;28;20213;-68
2022/07/28 08:44:27;;;;;;;3.80;1.70;;;23.10;99.90;;;;;;5071379;28;20200;-68
2022/07/28 08:46:55;;;;;;;11.90;2.27;;;23.10;99.90;;;;;;5071858;28;20286;-68
2022/07/28 08:49:23;;;;;;;4.03;1.97;;;23.10;99.90;;;;;;5071507;28;20261;-68
2022/07/28 08:51:52;;;;;;;4.20;1.37;;;23.20;99.90;;;;;;5071564;28;20205;-70
2022/07/28 08:54:22;;;;;;;5.83;1.90;;;23.20;99.90;;;;;;5071790;28;20251;-69
2022/07/28 08:56:50;;;;;;;2.67;1.63;;;23.30;99.90;;;;;;5072116;28;20191;-68
2022/07/28 08:59:17;;;;;;;4.30;1.70;;;23.30;99.90;;;;;;5071441;28;20223;-68
2022/07/28 09:01:44;;;;;;;3.07;1.60;;;23.30;99.90;;;;;;5071054;28;20709;-69
2022/07/28 09:04:12;;;;;;;3.83;1.97;;;23.30;99.90;;;;;;5071516;28;20210;-71
2022/07/28 09:06:42;;;;;;;2.77;1.40;;;23.30;99.90;;;;;;5071107;28;20309;-68
2022/07/28 09:09:10;;;;;;;5.30;1.60;;;23.30;99.90;;;;;;5071695;28;20205;-68
2022/07/28 09:11:37;;;;;;;4.20;1.70;;;23.40;99.90;;;;;;5071975;28;20207;-68
2022/07/28 09:14:04;;;;;;;2.77;1.77;;;23.40;99.90;;;;;;5071652;28;20617;-69
2022/07/28 09:16:31;;;;;;;3.67;1.87;;;23.50;99.90;;;;;;5071966;28;20216;-69
2022/07/28 09:18:58;;;;;;;3.27;1.70;;;23.50;99.90;;;;;;5067843;28;20306;-68
2022/07/28 09:21:25;;;;;;;4.10;1.67;;;23.60;99.90;;;;;;5070564;28;20207;-68
2022/07/28 09:23:53;;;;;;;3.57;1.60;;;23.60;99.90;;;;;;5069067;28;20244;-70
2022/07/28 09:26:20;;;;;;;2.27;1.80;;;23.60;99.90;;;;;;5065558;28;20284;-69
2022/07/28 09:28:49;;;;;;;4.57;1.70;;;23.60;99.90;;;;;;5068966;28;20207;-71
2022/07/28 09:31:16;;;;;;;3.43;1.60;;;23.60;99.90;;;;;;5068772;28;20712;-70
2022/07/28 09:33:54;;;;;;;2.87;1.57;;;23.60;99.90;;;;;;5070404;28;20202;-68
2022/07/28 09:36:21;;;;;;;3.30;1.50;;;23.70;99.90;;;;;;5071657;28;20631;-70
2022/07/28 09:38:48;;;;;;;1.97;1.47;;;23.70;99.90;;;;;;5071753;28;20235;-69
2022/07/28 09:41:20;;;;;;;2.40;1.50;;;23.80;99.90;;;;;;5069807;28;21526;-69
2022/07/28 09:43:49;;;;;;;4.23;1.60;;;23.80;99.90;;;;;;5057035;28;20202;-71
2022/07/28 09:46:17;;;;;;;4.50;1.90;;;23.90;99.90;;;;;;5061144;28;20249;-70
2022/07/28 09:48:52;;;;;;;3.90;1.70;;;23.90;99.90;;;;;;5061267;28;20241;-69
2022/07/28 09:51:21;;;;;;;4.73;1.70;;;23.90;99.90;;;;;;5070826;28;20253;-68
2022/07/28 09:53:48;;;;;;;3.93;1.70;;;24.00;99.90;;;;;;5069557;28;20299;-69
2022/07/28 09:56:17;;;;;;;2.30;1.40;;;24.00;99.90;;;;;;5066624;28;20609;-69
2022/07/28 09:58:53;;;;;;;5.07;1.90;;;24.10;99.90;;;;;;5068887;28;20309;-69
2022/07/28 10:01:21;;;;;;;1.77;1.40;;;24.00;99.90;;;;;;5070824;28;20257;-69
2022/07/28 10:03:51;;;;;;;3.43;1.80;;;24.10;99.90;;;;;;5074910;28;20230;-69
2022/07/28 10:06:26;;;;;;;5.27;1.63;;;24.10;99.90;;;;;;5074234;28;20640;-68
2022/07/28 10:08:54;;;;;;;3.13;1.47;;;24.20;99.90;;;;;;5075022;28;20579;-69
2022/07/28 10:11:25;;;;;;;2.20;1.33;;;24.30;99.90;;;;;;5066822;28;20208;-68
2022/07/28 10:13:55;;;;;;;5.20;1.60;;;24.30;99.90;;;;;;5074205;28;20199;-70
2022/07/28 10:16:24;;;;;;;4.57;1.63;;;24.40;99.90;;;;;;5074943;28;20705;-69
2022/07/28 10:18:51;;;;;;;2.40;1.60;;;24.50;99.90;;;;;;5074617;28;20694;-68
2022/07/28 10:21:20;;;;;;;5.00;1.80;;;24.50;99.90;;;;;;5074834;28;20201;-71
2022/07/28 10:23:49;;;;;;;5.87;1.70;;;24.60;99.90;;;;;;5074308;28;20300;-69
2022/07/28 10:26:20;;;;;;;4.70;2.00;;;24.60;99.90;;;;;;5073042;28;20211;-68
2022/07/28 10:28:50;;;;;;;3.40;1.53;;;24.70;99.90;;;;;;5054610;28;20192;-69
2022/07/28 10:31:29;;;;;;;6.53;2.00;;;24.70;99.90;;;;;;5072348;28;20802;-69
2022/07/28 10:33:59;;;;;;;4.93;1.60;;;24.60;99.90;;;;;;5074125;28;20196;-68
2022/07/28 10:36:26;;;;;;;2.27;1.40;;;24.70;99.90;;;;;;5072598;28;20211;-68
2022/07/28 10:39:06;;;;;;;3.77;1.67;;;24.70;99.90;;;;;;5074126;28;20237;-68
2022/07/28 10:41:40;;;;;;;3.40;1.60;;;24.70;99.90;;;;;;5073629;28;20611;-68
2022/07/28 10:44:12;;;;;;;2.03;1.50;;;24.80;99.90;;;;;;5071349;28;20204;-69
2022/07/28 10:46:42;;;;;;;2.50;1.60;;;24.80;99.90;;;;;;5073268;28;20199;-68
2022/07/28 10:49:09;;;;;;;5.50;1.70;;;24.90;99.90;;;;;;5074310;28;20203;-69
2022/07/28 10:51:37;;;;;;;7.13;1.90;;;24.90;99.90;;;;;;5073579;28;20207;-70
2022/07/28 10:54:10;;;;;;;2.38;1.60;;;24.90;99.90;;;;;;5073154;28;20246;-71
2022/07/28 10:56:53;;;;;;;3.20;1.50;;;24.90;99.90;;;;;;5073352;28;20707;-70
2022/07/28 10:59:47;;;;;;;3.80;1.73;;;25.00;99.90;;;;;;5070867;28;20228;-72
2022/07/28 11:02:46;;;;;;;1.85;1.60;;;25.10;99.90;;;;;;5071652;28;20203;-71
2022/07/28 11:05:31;;;;;;;6.93;1.80;;;25.20;99.90;;;;;;5074054;28;20193;-71
2022/07/28 11:08:00;;;;;;;2.17;1.53;;;25.20;99.90;;;;;;5072603;28;20631;-69
2022/07/28 11:10:28;;;;;;;3.47;1.52;;;25.30;99.90;;;;;;5072819;28;20198;-68
2022/07/28 11:12:56;;;;;;;3.80;1.50;;;25.20;99.90;;;;;;5071561;28;20578;-73
2022/07/28 11:15:33;;;;;;;3.38;1.60;;;25.20;99.90;;;;;;5072897;28;20678;-72
2022/07/28 11:18:07;;;;;;;3.07;1.57;;;25.20;99.90;;;;;;5073915;28;21043;-72
2022/07/28 11:21:08;;;;;;;4.07;1.80;;;25.20;99.40;;;;;;5073599;28;20223;-73
2022/07/28 11:23:49;;;;;;;5.20;1.48;;;25.30;99.90;;;;;;5040141;28;20323;-70
2022/07/28 11:26:37;;;;;;;3.60;1.63;;;25.30;99.90;;;;;;5073114;28;20223;-69
2022/07/28 11:29:22;;;;;;;2.88;1.40;;;25.40;99.60;;;;;;5067734;28;20208;-70
2022/07/28 11:31:58;;;;;;;3.30;1.30;;;25.40;99.70;;;;;;5073355;28;20587;-70
2022/07/28 11:34:26;;;;;;;4.30;1.40;;;25.40;98.90;;;;;;5070838;28;20301;-69
2022/07/28 11:37:01;;;;;;;5.40;1.50;;;25.40;99.30;;;;;;5070227;28;20241;-70
2022/07/28 11:39:29;;;;;;;2.47;1.50;;;25.50;99.10;;;;;;5061712;28;20230;-71
2022/07/28 11:41:56;;;;;;;2.07;1.40;;;25.40;98.70;;;;;;5072568;28;20694;-69
2022/07/28 11:44:27;;;;;;;1.98;1.63;;;25.40;98.30;;;;;;5073005;28;20306;-69
2022/07/28 11:47:15;;;;;;;4.07;1.47;;;25.50;98.30;;;;;;5053830;28;20684;-69
2022/07/28 11:49:43;;;;;;;2.20;1.45;;;25.50;98.50;;;;;;5071735;28;20548;-69
2022/07/28 11:52:21;;;;;;;4.10;1.40;;;25.60;97.30;;;;;;5071445;28;20622;-69
2022/07/28 11:54:56;;;;;;;6.40;1.73;;;25.60;97.20;;;;;;5072328;28;20246;-70
2022/07/28 11:57:25;;;;;;;2.42;1.27;;;25.50;97.10;;;;;;5070572;28;20666;-68
2022/07/28 11:59:54;;;;;;;1.80;1.30;;;25.50;97.20;;;;;;5052341;28;20261;-69
2022/07/28 12:02:23;;;;;;;2.50;1.60;;;25.50;97.30;;;;;;5071862;28;20286;-68
2022/07/28 12:05:08;;;;;;;2.00;1.45;;;25.70;96.80;;;;;;5072762;28;20305;-71
2022/07/28 12:07:37;;;;;;;3.97;1.83;;;25.70;96.90;;;;;;5066289;28;20242;-67
2022/07/28 12:10:26;;;;;;;3.08;1.58;;;25.70;96.80;;;;;;5072102;28;20289;-65
2022/07/28 12:12:53;;;;;;;6.40;1.70;;;25.70;97.00;;;;;;5068678;28;20211;-64
2022/07/28 12:15:21;;;;;;;3.15;1.90;;;25.70;97.40;;;;;;5071759;28;20296;-64
2022/07/28 12:17:49;;;;;;;3.75;1.75;;;25.60;97.40;;;;;;5068585;28;20282;-66
2022/07/28 12:20:18;;;;;;;3.17;1.70;;;25.60;97.50;;;;;;5071233;28;20320;-66
2022/07/28 12:22:55;;;;;;;5.05;2.00;;;25.70;97.30;;;;;;5072094;28;20249;-65
2022/07/28 12:25:22;;;;;;;5.65;2.45;;;25.70;97.20;;;;;;5071460;28;20250;-66
2022/07/28 12:27:49;;;;;;;3.72;1.95;;;25.70;97.30;;;;;;5070235;28;20291;-65
2022/07/28 12:30:22;;;;;;;3.33;1.90;;;25.70;97.10;;;;;;5072378;28;20296;-67
2022/07/28 12:32:49;;;;;;;3.47;1.90;;;25.60;96.70;;;;;;5069154;28;20665;-67
2022/07/28 12:35:18;;;;;;;2.75;1.80;;;25.70;96.00;;;;;;5070715;28;20207;-68
2022/07/28 12:37:47;;;;;;;3.92;1.73;;;25.70;96.00;;;;;;5072264;28;20230;-68
2022/07/28 12:40:15;;;;;;;4.88;1.85;;;25.70;95.90;;;;;;5072304;28;20273;-66
2022/07/28 12:42:42;;;;;;;4.40;2.03;;;25.70;96.00;;;;;;5072106;28;20751;-68
2022/07/28 12:45:10;;;;;;;2.78;1.70;;;25.70;95.90;;;;;;5072359;28;20234;-67
2022/07/28 12:47:38;;;;;;;2.80;1.93;;;25.70;96.30;;;;;;5072322;28;20542;-67
2022/07/28 12:50:11;;;;;;;4.45;2.08;;;25.70;96.10;;;;;;5072368;28;20288;-70
2022/07/28 12:52:41;;;;;;;4.43;1.73;;;25.80;96.90;;;;;;5071775;28;20194;-68
2022/07/28 12:55:24;;;;;;;2.97;1.95;;;25.80;95.90;;;;;;5072208;28;20562;-68
2022/07/28 12:57:52;;;;;;;3.65;2.00;;;25.80;96.00;;;;;;5071801;28;20210;-68